Hekiryumaru — JH3274 — position and weather

sailwx.info

Track history (hours):
 
Tides and Currents Weather Stations Pressure Air Temp Water Temp Dewpoint Dewpoint Depression Visibility Wind Speed Wind Dir Waves Ship Positions

Hekiryumaru

Last reported at 2018-Jun-24 06:16 UTC. Time now 2018-Jun-25 11:25 UTC.
Position N 33°49' E 135°02'.

Length 115 m; draft 5 m.

Type: Cargo ship. MMSI: 431200271.

Date/timePositionNaut miles runAvg speedWind from/ knotsBaromVisibWave heightAir tempDewpointWater temp
2018-Jun-24 06:16N 33°49' E 135°02'613.5
2018-Jun-24 05:49N 33°54' E 134°57'3213.5
2018-Jun-24 03:26N 34°18' E 134°32'714.4
2018-Jun-24 02:58N 34°20' E 134°24'5 0.2
2018-Jun-23 01:42N 34°23' E 134°19'414.6
2018-Jun-23 01:27N 34°22' E 134°24'614.4
2018-Jun-23 01:00N 34°19' E 134°31'1812.9
2018-Jun-22 23:37N 34°06' E 134°46'214.1
2018-Jun-22 23:30N 34°05' E 134°47'714.4
2018-Jun-22 22:59N 33°59' E 134°53'714.3
2018-Jun-22 22:30N 33°53' E 134°58'1 0.0
2018-Jun-21 02:12N 33°52' E 134°58'1313.8
2018-Jun-21 01:17N 34°03' E 134°49'2114.3
2018-Jun-20 23:50N 34°18' E 134°32'514.3
2018-Jun-20 23:30N 34°20' E 134°27'  
Track history (hours):
 
Tides and Currents Weather Stations Pressure Air Temp Water Temp Dewpoint Dewpoint Depression Visibility Wind Speed Wind Dir Waves Ship Positions

Hekiryumaru

Last reported at 2018-Jun-24 06:16 UTC. Time now 2018-Jun-25 11:25 UTC.
Position N 33°49' E 135°02'.

Length 115 m; draft 5 m.

Type: Cargo ship. MMSI: 431200271.

Date/timePositionNaut miles runAvg speedWind from/ knotsBaromVisibWave heightAir tempDewpointWater temp
2018-Jun-24 06:16N 33°49' E 135°02'613.5
2018-Jun-24 05:49N 33°54' E 134°57'3213.5
2018-Jun-24 03:26N 34°18' E 134°32'714.4
2018-Jun-24 02:58N 34°20' E 134°24'5 0.2
2018-Jun-23 01:42N 34°23' E 134°19'414.6
2018-Jun-23 01:27N 34°22' E 134°24'614.4
2018-Jun-23 01:00N 34°19' E 134°31'1812.9
2018-Jun-22 23:37N 34°06' E 134°46'214.1
2018-Jun-22 23:30N 34°05' E 134°47'714.4
2018-Jun-22 22:59N 33°59' E 134°53'714.3
2018-Jun-22 22:30N 33°53' E 134°58'1 0.0
2018-Jun-21 02:12N 33°52' E 134°58'1313.8
2018-Jun-21 01:17N 34°03' E 134°49'2114.3
2018-Jun-20 23:50N 34°18' E 134°32'514.3
2018-Jun-20 23:30N 34°20' E 134°27'  

Dump ship's entire track history